createdAt,value
2023-03-29T00:00:30.931Z,6.09
2023-03-29T00:01:36.143Z,6.21
2023-03-29T00:02:31.066Z,6.09
2023-03-29T00:03:31.229Z,6.14
2023-03-29T00:04:31.089Z,6.25
2023-03-29T00:05:31.046Z,6.06
2023-03-29T00:06:31.080Z,6.09
2023-03-29T00:07:31.094Z,6.06
2023-03-29T00:08:31.121Z,6.14
2023-03-29T00:09:31.140Z,6.10
2023-03-29T00:10:31.167Z,6.13
2023-03-29T00:11:31.188Z,6.13
2023-03-29T00:12:31.245Z,6.15
2023-03-29T00:13:31.252Z,6.07
2023-03-29T00:14:31.317Z,6.17
2023-03-29T00:15:31.376Z,6.10
2023-03-29T00:16:31.338Z,6.13
2023-03-29T00:17:31.328Z,6.13
2023-03-29T00:18:31.353Z,6.09
2023-03-29T00:19:31.376Z,6.14
2023-03-29T00:20:31.401Z,6.14
2023-03-29T00:21:31.430Z,6.15
2023-03-29T00:22:31.447Z,6.17
2023-03-29T00:23:31.471Z,6.20
2023-03-29T00:24:31.492Z,6.17
2023-03-29T00:25:31.515Z,6.15
2023-03-29T00:26:31.540Z,6.17
2023-03-29T00:27:31.559Z,6.07
2023-03-29T00:28:31.622Z,6.17
2023-03-29T00:29:31.617Z,6.21
2023-03-29T00:30:31.633Z,6.17
2023-03-29T00:31:31.877Z,6.20
2023-03-29T00:32:31.702Z,6.20
2023-03-29T00:33:31.706Z,6.18
2023-03-29T00:34:31.726Z,6.20
2023-03-29T00:35:31.792Z,6.20
2023-03-29T00:36:31.774Z,6.18
2023-03-29T00:37:31.809Z,6.20
2023-03-29T00:38:31.820Z,6.20
2023-03-29T00:39:31.844Z,6.18
2023-03-29T00:40:31.868Z,6.24
2023-03-29T00:41:31.889Z,6.15
2023-03-29T00:42:31.912Z,6.18
2023-03-29T00:43:31.935Z,6.17
2023-03-29T00:44:32.024Z,6.07
2023-03-29T00:45:31.990Z,6.09
2023-03-29T00:46:32.131Z,6.10
2023-03-29T00:47:32.063Z,6.20
2023-03-29T00:48:32.056Z,6.24
2023-03-29T00:49:32.084Z,6.20
2023-03-29T00:50:32.119Z,6.31
2023-03-29T00:51:32.122Z,6.26
2023-03-29T00:52:32.172Z,6.21
2023-03-29T00:53:32.432Z,6.28
2023-03-29T00:54:32.193Z,6.28
2023-03-29T00:55:32.219Z,6.28
2023-03-29T00:56:32.243Z,6.29
2023-03-29T00:57:32.263Z,6.25
2023-03-29T00:58:32.289Z,6.26
2023-03-29T00:59:32.310Z,6.29
2023-03-29T01:00:32.368Z,6.25
2023-03-29T01:01:32.385Z,6.33
2023-03-29T01:02:32.433Z,6.29
2023-03-29T01:03:32.454Z,6.31
2023-03-29T01:04:32.428Z,6.21
2023-03-29T01:05:32.458Z,6.28
2023-03-29T01:06:32.485Z,6.34
2023-03-29T01:07:32.500Z,6.29
2023-03-29T01:08:32.527Z,6.21
2023-03-29T01:09:32.552Z,6.31
2023-03-29T01:10:32.574Z,6.25
2023-03-29T01:11:32.601Z,6.26
2023-03-29T01:12:32.653Z,6.31
2023-03-29T01:13:32.644Z,6.25
2023-03-29T01:14:32.667Z,6.24
2023-03-29T01:15:32.690Z,6.25
2023-03-29T01:16:32.836Z,6.15
2023-03-29T01:17:32.758Z,6.20
2023-03-29T01:18:32.761Z,6.24
2023-03-29T01:19:32.790Z,6.33
2023-03-29T01:20:32.811Z,6.33
2023-03-29T01:21:32.845Z,6.31
2023-03-29T01:22:32.856Z,6.36
2023-03-29T01:23:32.882Z,6.36
2023-03-29T01:24:32.914Z,6.28
2023-03-29T01:25:32.928Z,6.28
2023-03-29T01:26:32.952Z,6.36
2023-03-29T01:27:32.977Z,6.36
2023-03-29T01:28:33.000Z,6.37
2023-03-29T01:29:33.040Z,6.33
2023-03-29T01:30:33.044Z,6.42
2023-03-29T01:31:33.145Z,6.28
2023-03-29T01:32:33.152Z,6.36
2023-03-29T01:33:33.120Z,6.44
2023-03-29T01:34:33.140Z,6.37
2023-03-29T01:35:33.195Z,6.43
2023-03-29T01:36:33.189Z,6.36
2023-03-29T01:37:33.209Z,6.39
2023-03-29T01:38:33.234Z,6.39
2023-03-29T01:39:33.255Z,6.47
2023-03-29T01:40:33.314Z,6.46
2023-03-29T01:41:33.304Z,6.43
2023-03-29T01:42:33.329Z,6.44
2023-03-29T01:43:33.357Z,6.49
2023-03-29T01:44:33.378Z,6.54
2023-03-29T01:45:33.396Z,6.46
2023-03-29T01:46:33.489Z,6.44
2023-03-29T01:47:33.541Z,6.47
2023-03-29T01:48:33.503Z,6.49
2023-03-29T01:49:33.492Z,6.58
2023-03-29T01:50:33.518Z,6.57
2023-03-29T01:51:33.742Z,6.51
2023-03-29T01:52:33.571Z,6.58
2023-03-29T01:53:33.591Z,6.47
2023-03-29T01:54:33.615Z,6.57
2023-03-29T01:55:33.650Z,6.55
2023-03-29T01:56:33.663Z,6.54
2023-03-29T01:57:33.684Z,6.62
2023-03-29T01:58:33.721Z,6.54
2023-03-29T01:59:33.734Z,6.58
2023-03-29T02:00:33.777Z,6.62
2023-03-29T02:01:33.819Z,6.62
2023-03-29T02:02:33.985Z,6.61
2023-03-29T02:03:33.961Z,6.75
2023-03-29T02:04:33.874Z,6.72
2023-03-29T02:05:33.891Z,6.65
2023-03-29T02:06:33.909Z,6.67
2023-03-29T02:07:33.921Z,6.73
2023-03-29T02:08:33.958Z,6.70
2023-03-29T02:09:33.970Z,6.75
2023-03-29T02:10:34.018Z,6.75
2023-03-29T02:11:34.127Z,6.70
2023-03-29T02:12:34.050Z,6.75
2023-03-29T02:13:34.064Z,6.79
2023-03-29T02:14:34.116Z,6.65
2023-03-29T02:15:34.185Z,6.72
2023-03-29T02:16:34.168Z,6.73
2023-03-29T02:17:34.182Z,6.73
2023-03-29T02:18:34.243Z,6.76
2023-03-29T02:19:34.256Z,6.72
2023-03-29T02:20:34.250Z,6.79
2023-03-29T02:21:34.257Z,6.70
2023-03-29T02:22:34.278Z,6.83
2023-03-29T02:23:34.392Z,6.83
2023-03-29T02:24:34.339Z,6.75
2023-03-29T02:25:34.356Z,6.76
2023-03-29T02:26:34.374Z,6.76
2023-03-29T02:27:34.400Z,6.82
2023-03-29T02:28:34.424Z,6.83
2023-03-29T02:29:34.457Z,6.83
2023-03-29T02:30:34.468Z,6.72
2023-03-29T02:31:34.522Z,6.70
2023-03-29T02:32:34.540Z,6.72
2023-03-29T02:33:34.542Z,6.83
2023-03-29T02:34:34.582Z,6.83
2023-03-29T02:35:34.808Z,6.88
2023-03-29T02:36:34.636Z,6.80
2023-03-29T02:37:34.634Z,6.83
2023-03-29T02:38:34.661Z,6.83
2023-03-29T02:39:34.695Z,6.85
2023-03-29T02:40:34.713Z,6.83
2023-03-29T02:41:34.734Z,6.85
2023-03-29T02:42:34.769Z,6.88
2023-03-29T02:43:34.781Z,6.94
2023-03-29T02:44:34.816Z,6.95
2023-03-29T02:45:34.829Z,6.90
2023-03-29T02:46:34.880Z,6.95
2023-03-29T02:47:34.924Z,6.98
2023-03-29T02:48:34.904Z,6.90
2023-03-29T02:49:34.964Z,6.88
2023-03-29T02:50:34.945Z,6.97
2023-03-29T02:51:34.982Z,6.97
2023-03-29T02:52:35.024Z,6.94
2023-03-29T02:53:35.020Z,6.93
2023-03-29T02:54:35.212Z,6.98
2023-03-29T02:55:35.066Z,7.00
2023-03-29T02:56:35.089Z,6.95
2023-03-29T02:57:35.118Z,7.01
2023-03-29T02:58:35.145Z,6.91
2023-03-29T02:59:35.171Z,7.00
2023-03-29T03:00:35.218Z,7.03
2023-03-29T03:01:35.288Z,7.08
2023-03-29T03:02:35.273Z,7.04
2023-03-29T03:03:35.351Z,7.04
2023-03-29T03:04:35.285Z,7.03
2023-03-29T03:05:35.306Z,7.04
2023-03-29T03:06:35.329Z,7.03
2023-03-29T03:07:35.359Z,7.12
2023-03-29T03:08:35.413Z,7.19
2023-03-29T03:09:35.413Z,7.15
2023-03-29T03:10:35.477Z,7.18
2023-03-29T03:11:35.450Z,7.12
2023-03-29T03:12:35.472Z,7.16
2023-03-29T03:13:35.507Z,7.16
2023-03-29T03:14:35.532Z,7.15
2023-03-29T03:15:35.600Z,7.26
2023-03-29T03:16:35.649Z,7.13
2023-03-29T03:17:35.619Z,7.21
2023-03-29T03:18:35.628Z,7.22
2023-03-29T03:19:35.647Z,7.13
2023-03-29T03:20:35.666Z,7.15
2023-03-29T03:21:35.704Z,7.19
2023-03-29T03:22:35.709Z,7.19
2023-03-29T03:23:35.734Z,7.22
2023-03-29T03:24:35.778Z,7.18
2023-03-29T03:25:35.784Z,7.21
2023-03-29T03:26:35.806Z,7.19
2023-03-29T03:27:35.828Z,7.16
2023-03-29T03:28:35.866Z,7.27
2023-03-29T03:29:35.878Z,7.27
2023-03-29T03:30:35.901Z,7.23
2023-03-29T03:31:36.185Z,7.27
2023-03-29T03:32:36.008Z,7.29
2023-03-29T03:33:35.971Z,7.26
2023-03-29T03:34:35.996Z,7.23
2023-03-29T03:35:36.050Z,7.30
2023-03-29T03:36:36.059Z,7.33
2023-03-29T03:37:36.065Z,7.30
2023-03-29T03:38:36.129Z,7.31
2023-03-29T03:39:36.113Z,7.36
2023-03-29T03:40:36.157Z,7.34
2023-03-29T03:41:36.190Z,7.37
2023-03-29T03:42:36.192Z,7.33
2023-03-29T03:43:36.227Z,7.36
2023-03-29T03:44:36.234Z,7.34
2023-03-29T03:45:36.296Z,7.33
2023-03-29T03:46:36.281Z,7.26
2023-03-29T03:47:36.325Z,7.29
2023-03-29T03:48:36.328Z,7.31
2023-03-29T03:49:36.355Z,7.22
2023-03-29T03:50:36.380Z,7.27
2023-03-29T03:51:36.401Z,7.34
2023-03-29T03:52:36.427Z,7.33
2023-03-29T03:53:36.455Z,7.30
2023-03-29T03:54:36.479Z,7.26
2023-03-29T03:55:36.505Z,7.33
2023-03-29T03:56:36.545Z,7.30
2023-03-29T03:57:36.547Z,7.29
2023-03-29T03:58:36.577Z,7.30
2023-03-29T03:59:36.601Z,7.34
2023-03-29T04:00:36.615Z,7.47
2023-03-29T04:01:36.643Z,7.44
2023-03-29T04:02:36.790Z,7.30
2023-03-29T04:03:36.780Z,7.47
2023-03-29T04:04:36.744Z,7.33
2023-03-29T04:05:36.742Z,7.47
2023-03-29T04:06:36.761Z,7.40
2023-03-29T04:07:36.789Z,7.41
2023-03-29T04:08:36.814Z,7.47
2023-03-29T04:09:36.839Z,7.40
2023-03-29T04:10:36.861Z,7.48
2023-03-29T04:11:36.887Z,7.48
2023-03-29T04:12:36.931Z,7.47
2023-03-29T04:13:36.932Z,7.40
2023-03-29T04:14:36.955Z,7.33
2023-03-29T04:15:36.987Z,7.47
2023-03-29T04:16:37.023Z,7.44
2023-03-29T04:17:37.116Z,7.40
2023-03-29T04:18:37.192Z,7.40
2023-03-29T04:19:37.082Z,7.44
2023-03-29T04:20:37.101Z,7.41
2023-03-29T04:21:37.144Z,7.47
2023-03-29T04:22:37.147Z,7.44
2023-03-29T04:23:37.173Z,7.44
2023-03-29T04:24:37.208Z,7.48
2023-03-29T04:25:37.221Z,7.45
2023-03-29T04:26:37.243Z,7.45
2023-03-29T04:27:37.272Z,7.49
2023-03-29T04:28:37.317Z,7.48
2023-03-29T04:29:37.322Z,7.47
2023-03-29T04:30:37.344Z,7.52
2023-03-29T04:31:37.433Z,7.56
2023-03-29T04:32:37.454Z,7.56
2023-03-29T04:33:37.426Z,7.56
2023-03-29T04:34:37.445Z,7.55
2023-03-29T04:35:37.523Z,7.51
2023-03-29T04:36:37.492Z,7.63
2023-03-29T04:37:37.520Z,7.64
2023-03-29T04:38:37.539Z,7.63
2023-03-29T04:39:37.576Z,7.55
2023-03-29T04:40:37.608Z,7.63
2023-03-29T04:41:37.620Z,7.71
2023-03-29T04:42:37.707Z,7.63
2023-03-29T04:43:40.125Z,7.68
2023-03-29T04:44:37.772Z,7.59
2023-03-29T04:45:37.714Z,7.64
2023-03-29T04:46:37.819Z,7.67
2023-03-29T04:47:37.791Z,7.58
2023-03-29T04:48:37.785Z,7.59
2023-03-29T04:49:37.812Z,7.64
2023-03-29T04:50:37.838Z,7.61
2023-03-29T04:51:37.860Z,7.61
2023-03-29T04:52:37.884Z,7.73
2023-03-29T04:53:37.912Z,7.71
2023-03-29T04:54:37.930Z,7.63
2023-03-29T04:55:37.959Z,7.67
2023-03-29T04:56:38.067Z,7.64
2023-03-29T04:57:38.009Z,7.68
2023-03-29T04:58:38.035Z,7.70
2023-03-29T04:59:38.059Z,7.73
2023-03-29T05:00:38.105Z,7.73
2023-03-29T05:01:38.154Z,7.68
2023-03-29T05:02:38.168Z,7.73
2023-03-29T05:03:38.166Z,7.68
2023-03-29T05:04:38.228Z,7.64
2023-03-29T05:05:38.201Z,7.73
2023-03-29T05:06:38.225Z,7.75
2023-03-29T05:07:38.272Z,7.75
2023-03-29T05:08:38.282Z,7.67
2023-03-29T05:09:38.317Z,7.70
2023-03-29T05:10:38.327Z,7.67
2023-03-29T05:11:38.354Z,7.74
2023-03-29T05:12:38.370Z,7.64
2023-03-29T05:13:38.397Z,7.70
2023-03-29T05:14:38.421Z,7.64
2023-03-29T05:15:40.190Z,7.68
2023-03-29T05:16:38.521Z,7.68
2023-03-29T05:17:38.536Z,7.70
2023-03-29T05:18:38.513Z,7.73
2023-03-29T05:19:38.547Z,7.63
2023-03-29T05:20:38.571Z,7.67
2023-03-29T05:21:38.590Z,7.68
2023-03-29T05:22:38.614Z,7.68
2023-03-29T05:23:38.640Z,7.73
2023-03-29T05:24:38.664Z,7.71
2023-03-29T05:25:38.689Z,7.80
2023-03-29T05:26:38.710Z,7.80
2023-03-29T05:27:38.740Z,7.73
2023-03-29T05:28:38.764Z,7.77
2023-03-29T05:29:38.787Z,7.78
2023-03-29T05:30:38.809Z,7.83
2023-03-29T05:31:38.867Z,7.78
2023-03-29T05:32:38.904Z,7.74
2023-03-29T05:33:38.887Z,7.85
2023-03-29T05:34:38.907Z,7.78
2023-03-29T05:35:38.947Z,7.82
2023-03-29T05:36:38.975Z,7.82
2023-03-29T05:37:38.998Z,7.91
2023-03-29T05:38:39.003Z,7.88
2023-03-29T05:39:39.033Z,7.92
2023-03-29T05:40:39.055Z,7.89
2023-03-29T05:41:39.115Z,7.96
2023-03-29T05:42:39.101Z,7.92
2023-03-29T05:43:39.129Z,7.96
2023-03-29T05:44:39.154Z,7.95
2023-03-29T05:45:39.219Z,7.95
2023-03-29T05:46:39.207Z,7.99
2023-03-29T05:47:39.348Z,7.93
2023-03-29T05:48:39.272Z,8.06
2023-03-29T05:49:39.276Z,7.96
2023-03-29T05:50:39.298Z,8.10
2023-03-29T05:51:39.332Z,7.99
2023-03-29T05:52:39.352Z,8.14
2023-03-29T05:53:39.376Z,8.14
2023-03-29T05:54:39.397Z,8.16
2023-03-29T05:55:39.426Z,8.16
2023-03-29T05:56:39.459Z,8.16
2023-03-29T05:57:39.480Z,8.14
2023-03-29T05:58:39.498Z,8.16
2023-03-29T05:59:39.524Z,8.21
2023-03-29T06:00:39.553Z,8.22
2023-03-29T06:01:39.576Z,8.21
2023-03-29T06:02:39.733Z,8.22
2023-03-29T06:03:39.771Z,8.26
2023-03-29T06:04:39.747Z,8.22
2023-03-29T06:05:39.684Z,8.25
2023-03-29T06:06:39.704Z,8.28
2023-03-29T06:07:39.724Z,8.29
2023-03-29T06:08:39.745Z,8.32
2023-03-29T06:09:39.778Z,8.36
2023-03-29T06:10:39.798Z,8.40
2023-03-29T06:11:39.828Z,8.44
2023-03-29T06:12:39.847Z,8.42
2023-03-29T06:13:39.868Z,8.34
2023-03-29T06:14:39.893Z,8.43
2023-03-29T06:15:39.920Z,8.44
2023-03-29T06:16:42.610Z,8.46
2023-03-29T06:17:40.067Z,8.44
2023-03-29T06:18:40.026Z,8.53
2023-03-29T06:19:40.019Z,8.49
2023-03-29T06:20:40.172Z,8.49
2023-03-29T06:21:40.088Z,8.44
2023-03-29T06:22:40.091Z,8.49
2023-03-29T06:23:40.130Z,8.60
2023-03-29T06:24:40.142Z,8.62
2023-03-29T06:25:40.168Z,8.67
2023-03-29T06:26:40.193Z,8.68
2023-03-29T06:27:40.216Z,8.64
2023-03-29T06:28:40.243Z,8.62
2023-03-29T06:29:40.268Z,8.68
2023-03-29T06:30:40.290Z,8.64
2023-03-29T06:31:40.346Z,8.61
2023-03-29T06:32:40.371Z,8.60
2023-03-29T06:33:40.517Z,8.58
2023-03-29T06:34:40.396Z,8.79
2023-03-29T06:35:40.481Z,8.64
2023-03-29T06:36:40.464Z,8.62
2023-03-29T06:37:40.475Z,8.79
2023-03-29T06:38:40.496Z,8.80
2023-03-29T06:39:40.516Z,8.65
2023-03-29T06:40:40.550Z,8.67
2023-03-29T06:41:40.570Z,8.68
2023-03-29T06:42:40.604Z,8.68
2023-03-29T06:43:40.621Z,8.72
2023-03-29T06:44:40.643Z,8.68
2023-03-29T06:45:40.688Z,8.79
2023-03-29T06:46:40.733Z,8.79
2023-03-29T06:47:40.782Z,8.72
2023-03-29T06:48:40.746Z,8.74
2023-03-29T06:49:40.771Z,8.85
2023-03-29T06:50:40.791Z,8.80
2023-03-29T06:51:40.818Z,8.82
2023-03-29T06:52:40.864Z,8.90
2023-03-29T06:53:40.866Z,8.97
2023-03-29T06:54:40.891Z,9.00
2023-03-29T06:55:40.920Z,9.08
2023-03-29T06:56:40.996Z,9.05
2023-03-29T06:57:40.969Z,9.08
2023-03-29T06:58:40.990Z,9.08
2023-03-29T06:59:41.017Z,9.17
2023-03-29T07:00:41.048Z,9.14
2023-03-29T07:01:41.137Z,9.21
2023-03-29T07:02:41.143Z,9.27
2023-03-29T07:03:41.118Z,9.26
2023-03-29T07:04:41.191Z,9.23
2023-03-29T07:05:41.187Z,9.26
2023-03-29T07:06:41.194Z,9.21
2023-03-29T07:07:41.216Z,9.29
2023-03-29T07:08:41.403Z,9.27
2023-03-29T07:09:41.272Z,9.32
2023-03-29T07:10:41.293Z,9.38
2023-03-29T07:11:41.313Z,9.42
2023-03-29T07:12:41.343Z,9.35
2023-03-29T07:13:41.366Z,9.53
2023-03-29T07:14:41.391Z,9.55
2023-03-29T07:15:41.430Z,9.60
2023-03-29T07:16:41.500Z,9.62
2023-03-29T07:17:41.504Z,9.63
2023-03-29T07:18:41.513Z,9.64
2023-03-29T07:19:41.528Z,9.78
2023-03-29T07:20:41.549Z,9.82
2023-03-29T07:21:41.567Z,9.89
2023-03-29T07:22:41.593Z,9.92
2023-03-29T07:23:41.618Z,9.96
2023-03-29T07:24:41.661Z,9.92
2023-03-29T07:25:41.678Z,9.96
2023-03-29T07:26:52.353Z,9.93
2023-03-29T07:27:41.742Z,9.89
2023-03-29T07:28:41.747Z,9.98
2023-03-29T07:29:41.771Z,9.93
2023-03-29T07:30:41.800Z,9.98
2023-03-29T07:31:41.952Z,9.89
2023-03-29T07:32:41.920Z,9.93
2023-03-29T07:33:42.181Z,9.89
2023-03-29T07:34:41.899Z,9.90
2023-03-29T07:35:41.934Z,9.89
2023-03-29T07:36:41.950Z,9.89
2023-03-29T07:37:41.981Z,9.90
2023-03-29T07:38:42.006Z,9.92
2023-03-29T07:39:42.032Z,9.95
2023-03-29T07:40:42.079Z,9.85
2023-03-29T07:41:42.106Z,9.95
2023-03-29T07:42:42.104Z,9.99
2023-03-29T07:43:42.133Z,9.95
2023-03-29T07:44:42.165Z,10.02
2023-03-29T07:45:42.332Z,10.03
2023-03-29T07:46:42.207Z,9.95
2023-03-29T07:47:42.266Z,10.08
2023-03-29T07:48:42.270Z,10.00
2023-03-29T07:49:42.311Z,10.11
2023-03-29T07:50:42.311Z,10.15
2023-03-29T07:51:42.334Z,10.18
2023-03-29T07:52:42.368Z,10.17
2023-03-29T07:53:42.388Z,10.28
2023-03-29T07:54:42.417Z,10.28
2023-03-29T07:55:43.187Z,10.33
2023-03-29T07:56:42.513Z,10.33
2023-03-29T07:57:42.490Z,10.51
2023-03-29T07:58:42.518Z,10.54
2023-03-29T07:59:42.549Z,10.54
2023-03-29T08:00:42.591Z,10.63
2023-03-29T08:01:42.598Z,10.66
2023-03-29T08:02:42.663Z,10.77
2023-03-29T08:03:42.691Z,10.75
2023-03-29T08:04:42.688Z,10.88
2023-03-29T08:05:42.716Z,10.97
2023-03-29T08:06:42.928Z,10.91
2023-03-29T08:07:42.752Z,10.94
2023-03-29T08:08:42.787Z,10.91
2023-03-29T08:09:42.806Z,10.98
2023-03-29T08:10:42.849Z,11.03
2023-03-29T08:11:42.862Z,10.91
2023-03-29T08:12:42.910Z,10.92
2023-03-29T08:13:42.914Z,10.83
2023-03-29T08:14:42.941Z,10.77
2023-03-29T08:15:42.966Z,10.80
2023-03-29T08:16:43.046Z,10.75
2023-03-29T08:17:43.105Z,10.90
2023-03-29T08:18:43.058Z,10.98
2023-03-29T08:19:50.802Z,10.95
2023-03-29T08:20:43.100Z,11.18
2023-03-29T08:21:43.128Z,11.20
2023-03-29T08:22:43.165Z,11.30
2023-03-29T08:23:43.178Z,11.38
2023-03-29T08:24:43.208Z,11.45
2023-03-29T08:25:43.233Z,11.48
2023-03-29T08:26:43.262Z,11.67
2023-03-29T08:27:43.290Z,11.78
2023-03-29T08:28:43.365Z,11.81
2023-03-29T08:29:43.340Z,11.94
2023-03-29T08:30:43.395Z,12.07
2023-03-29T08:31:43.395Z,12.05
2023-03-29T08:32:43.483Z,12.08
2023-03-29T08:33:43.478Z,12.15
2023-03-29T08:34:43.475Z,12.29
2023-03-29T08:35:43.560Z,12.44
2023-03-29T08:36:43.531Z,12.52
2023-03-29T08:37:43.593Z,12.63
2023-03-29T08:38:43.587Z,12.66
2023-03-29T08:39:43.608Z,12.76
2023-03-29T08:40:43.642Z,12.84
2023-03-29T08:41:43.668Z,12.88
2023-03-29T08:42:43.698Z,12.83
2023-03-29T08:43:43.726Z,12.66
2023-03-29T08:44:43.784Z,12.37
2023-03-29T08:45:43.779Z,12.18
2023-03-29T08:46:43.885Z,12.03
2023-03-29T08:47:43.843Z,11.88
2023-03-29T08:48:43.863Z,11.75
2023-03-29T08:49:43.887Z,11.67
2023-03-29T08:50:43.944Z,11.70
2023-03-29T08:51:43.942Z,11.70
2023-03-29T08:52:43.971Z,11.64
2023-03-29T08:53:43.994Z,11.68
2023-03-29T08:54:44.023Z,11.61
2023-03-29T08:55:44.049Z,11.64
2023-03-29T08:56:44.102Z,11.71
2023-03-29T08:57:44.104Z,11.66
2023-03-29T08:58:44.137Z,11.70
2023-03-29T08:59:44.158Z,11.67
2023-03-29T09:00:44.207Z,11.68
2023-03-29T09:01:45.267Z,11.64
2023-03-29T09:02:44.326Z,11.71
2023-03-29T09:03:44.377Z,11.66
2023-03-29T09:04:44.301Z,11.64
2023-03-29T09:05:44.322Z,11.64
2023-03-29T09:06:44.358Z,11.67
2023-03-29T09:07:44.392Z,11.70
2023-03-29T09:08:44.408Z,11.76
2023-03-29T09:09:44.433Z,11.84
2023-03-29T09:10:44.458Z,11.76
2023-03-29T09:11:44.485Z,11.81
2023-03-29T09:12:44.569Z,11.85
2023-03-29T09:13:44.539Z,11.84
2023-03-29T09:14:44.568Z,11.85
2023-03-29T09:15:44.627Z,11.89
2023-03-29T09:16:44.638Z,11.86
2023-03-29T09:17:44.693Z,11.95
2023-03-29T09:18:44.674Z,11.86
2023-03-29T09:19:44.706Z,11.88
2023-03-29T09:20:44.728Z,12.08
2023-03-29T09:21:44.754Z,11.94
2023-03-29T09:22:44.783Z,12.00
2023-03-29T09:23:44.818Z,12.05
2023-03-29T09:24:44.835Z,12.10
2023-03-29T09:25:53.341Z,12.22
2023-03-29T09:26:44.891Z,12.28
2023-03-29T09:27:44.917Z,12.31
2023-03-29T09:28:44.942Z,12.29
2023-03-29T09:29:44.968Z,12.23
2023-03-29T09:30:45.017Z,12.16
2023-03-29T09:31:45.069Z,12.05
2023-03-29T09:32:45.127Z,12.05
2023-03-29T09:33:45.079Z,12.07
2023-03-29T09:34:45.107Z,12.05
2023-03-29T09:35:45.169Z,12.05
2023-03-29T09:36:45.159Z,12.04
2023-03-29T09:37:45.187Z,12.04
2023-03-29T09:38:45.220Z,12.05
2023-03-29T09:39:45.240Z,11.97
2023-03-29T09:40:45.271Z,12.04
2023-03-29T09:41:45.303Z,11.98
2023-03-29T09:42:45.324Z,12.07
2023-03-29T09:43:45.350Z,11.88
2023-03-29T09:44:45.385Z,11.91
2023-03-29T09:45:45.432Z,11.97
2023-03-29T09:46:48.053Z,11.86
2023-03-29T09:47:45.539Z,11.86
2023-03-29T09:48:48.528Z,12.04
2023-03-29T09:49:48.743Z,12.00
2023-03-29T09:50:45.534Z,11.82
2023-03-29T09:51:45.558Z,11.95
2023-03-29T09:52:45.589Z,11.97
2023-03-29T09:53:45.621Z,11.91
2023-03-29T09:54:45.646Z,11.95
2023-03-29T09:55:49.810Z,11.98
2023-03-29T09:56:45.899Z,12.05
2023-03-29T09:58:28.274Z,12.08
2023-03-29T09:59:29.712Z,12.13
2023-03-29T10:00:28.325Z,12.22
2023-03-29T10:01:28.389Z,12.26
2023-03-29T10:02:28.393Z,12.20
2023-03-29T10:03:28.410Z,12.41
2023-03-29T10:04:28.478Z,12.45
2023-03-29T10:05:28.603Z,12.45
2023-03-29T10:06:28.482Z,12.41
2023-03-29T10:07:28.510Z,12.48
2023-03-29T10:08:28.539Z,12.56
2023-03-29T10:09:28.565Z,12.61
2023-03-29T10:10:28.610Z,12.61
2023-03-29T10:11:28.618Z,12.63
2023-03-29T10:12:28.646Z,12.80
2023-03-29T10:13:28.676Z,12.80
2023-03-29T10:14:28.703Z,12.80
2023-03-29T10:15:30.132Z,12.89
2023-03-29T10:16:28.850Z,12.89
2023-03-29T10:17:28.804Z,12.96
2023-03-29T10:18:28.810Z,13.06
2023-03-29T10:19:28.832Z,13.14
2023-03-29T10:20:28.902Z,13.13
2023-03-29T10:21:28.887Z,13.14
2023-03-29T10:22:28.923Z,13.11
2023-03-29T10:23:28.942Z,13.16
2023-03-29T10:24:28.977Z,13.13
2023-03-29T10:25:29.006Z,13.13
2023-03-29T10:26:29.035Z,13.09
2023-03-29T10:27:29.054Z,13.06
2023-03-29T10:28:29.093Z,13.07
2023-03-29T10:29:29.108Z,13.03
2023-03-29T10:30:29.139Z,12.89
2023-03-29T10:31:29.203Z,12.83
2023-03-29T10:32:29.211Z,12.94
2023-03-29T10:33:29.218Z,12.98
2023-03-29T10:34:29.249Z,13.06
2023-03-29T10:35:29.272Z,13.19
2023-03-29T10:36:29.321Z,13.27
2023-03-29T10:37:29.333Z,13.40
2023-03-29T10:38:29.363Z,13.53
2023-03-29T10:39:29.386Z,13.75
2023-03-29T10:40:29.413Z,13.88
2023-03-29T10:41:29.438Z,13.84
2023-03-29T10:42:29.472Z,14.02
2023-03-29T10:43:29.585Z,14.11
2023-03-29T10:44:32.329Z,14.15
2023-03-29T10:45:29.551Z,14.24
2023-03-29T10:46:29.650Z,14.48
2023-03-29T10:47:29.813Z,14.66
2023-03-29T10:48:29.654Z,14.82
2023-03-29T10:49:29.663Z,14.93
2023-03-29T10:50:29.698Z,15.23
2023-03-29T10:51:29.720Z,15.25
2023-03-29T10:52:29.802Z,15.13
2023-03-29T10:53:29.777Z,15.04
2023-03-29T10:54:29.807Z,14.97
2023-03-29T10:55:29.839Z,14.94
2023-03-29T10:56:29.878Z,14.90
2023-03-29T10:57:29.910Z,15.00
2023-03-29T10:58:29.921Z,15.07
2023-03-29T10:59:29.989Z,15.07
2023-03-29T11:00:29.983Z,14.90
2023-03-29T11:01:30.033Z,14.98
2023-03-29T11:02:30.181Z,15.23
2023-03-29T11:03:30.183Z,15.34
2023-03-29T11:04:30.094Z,15.45
2023-03-29T11:05:30.122Z,15.47
2023-03-29T11:06:30.151Z,15.44
2023-03-29T11:07:30.179Z,15.37
2023-03-29T11:08:31.845Z,15.45
2023-03-29T11:09:30.240Z,15.59
2023-03-29T11:10:30.279Z,15.70
2023-03-29T11:11:30.297Z,15.81
2023-03-29T11:12:30.327Z,15.84
2023-03-29T11:13:30.352Z,15.88
2023-03-29T11:14:30.393Z,15.67
2023-03-29T11:15:30.474Z,15.68
2023-03-29T11:16:30.601Z,15.68
2023-03-29T11:17:30.531Z,15.83
2023-03-29T11:18:30.521Z,15.75
2023-03-29T11:19:30.532Z,15.89
2023-03-29T11:20:30.566Z,15.80
2023-03-29T11:21:30.593Z,15.77
2023-03-29T11:22:30.627Z,15.95
2023-03-29T11:23:30.655Z,15.95
2023-03-29T11:24:30.710Z,15.95
2023-03-29T11:25:30.726Z,15.80
2023-03-29T11:26:30.741Z,15.86
2023-03-29T11:27:30.766Z,15.80
2023-03-29T11:28:30.797Z,15.84
2023-03-29T11:29:30.830Z,15.83
2023-03-29T11:30:30.858Z,15.86
2023-03-29T11:31:30.955Z,15.86
2023-03-29T11:32:30.957Z,15.75
2023-03-29T11:33:30.944Z,15.95
2023-03-29T11:34:30.977Z,16.06
2023-03-29T11:35:31.028Z,16.02
2023-03-29T11:36:31.036Z,15.98
2023-03-29T11:37:31.067Z,15.96
2023-03-29T11:38:31.102Z,15.96
2023-03-29T11:39:31.122Z,15.95
2023-03-29T11:40:31.176Z,15.93
2023-03-29T11:41:31.186Z,16.02
2023-03-29T11:42:31.214Z,15.84
2023-03-29T11:43:31.240Z,15.84
2023-03-29T11:44:31.298Z,16.00
2023-03-29T11:45:31.300Z,16.00
2023-03-29T11:46:31.363Z,16.02
2023-03-29T11:47:31.374Z,16.37
2023-03-29T11:48:31.399Z,16.33
2023-03-29T11:49:31.420Z,16.48
2023-03-29T11:50:31.684Z,16.65
2023-03-29T11:51:31.478Z,16.82
2023-03-29T11:52:31.511Z,16.88
2023-03-29T11:53:31.563Z,16.92
2023-03-29T11:54:31.580Z,16.97
2023-03-29T11:55:31.602Z,16.99
2023-03-29T11:56:31.676Z,16.94
2023-03-29T11:57:31.683Z,16.92
2023-03-29T11:58:31.690Z,16.90
2023-03-29T11:59:31.731Z,16.76
2023-03-29T12:00:31.766Z,16.69
2023-03-29T12:01:31.778Z,16.57
2023-03-29T12:02:31.891Z,16.63
2023-03-29T12:03:31.975Z,16.66
2023-03-29T12:04:31.973Z,16.65
2023-03-29T12:05:31.894Z,16.76
2023-03-29T12:06:31.957Z,16.85
2023-03-29T12:07:31.966Z,16.77
2023-03-29T12:08:31.994Z,16.82
2023-03-29T12:09:32.018Z,16.85
2023-03-29T12:10:32.050Z,16.85
2023-03-29T12:11:32.081Z,17.03
2023-03-29T12:12:32.131Z,16.88
2023-03-29T12:13:32.139Z,16.88
2023-03-29T12:14:32.174Z,16.92
2023-03-29T12:15:32.201Z,16.92
2023-03-29T12:16:32.419Z,17.00
2023-03-29T12:17:32.281Z,17.06
2023-03-29T12:18:32.307Z,16.97
2023-03-29T12:19:32.326Z,16.99
2023-03-29T12:20:32.357Z,16.99
2023-03-29T12:21:32.400Z,16.87
2023-03-29T12:22:32.417Z,16.94
2023-03-29T12:23:32.442Z,16.92
2023-03-29T12:24:32.490Z,16.95
2023-03-29T12:25:32.512Z,17.06
2023-03-29T12:26:32.537Z,17.15
2023-03-29T12:27:32.574Z,17.25
2023-03-29T12:28:32.615Z,17.28
2023-03-29T12:29:32.630Z,17.36
2023-03-29T12:30:34.259Z,17.49
2023-03-29T12:31:32.724Z,17.50
2023-03-29T12:32:32.792Z,17.55
2023-03-29T12:33:32.749Z,17.39
2023-03-29T12:34:32.783Z,17.30
2023-03-29T12:35:32.882Z,17.38
2023-03-29T12:36:32.844Z,17.45
2023-03-29T12:37:32.873Z,17.52
2023-03-29T12:38:32.912Z,17.57
2023-03-29T12:39:32.936Z,17.68
2023-03-29T12:40:32.968Z,17.84
2023-03-29T12:41:32.996Z,17.94
2023-03-29T12:42:33.028Z,18.10
2023-03-29T12:43:33.057Z,18.26
2023-03-29T12:44:33.128Z,18.39
2023-03-29T12:45:33.119Z,18.42
2023-03-29T12:46:33.300Z,18.56
2023-03-29T12:47:33.226Z,18.35
2023-03-29T12:48:33.213Z,18.24
2023-03-29T12:49:33.242Z,18.32
2023-03-29T12:50:33.278Z,18.29
2023-03-29T12:51:33.323Z,18.29
2023-03-29T12:52:33.345Z,18.23
2023-03-29T12:53:33.375Z,18.19
2023-03-29T12:54:33.399Z,18.11
2023-03-29T12:55:33.436Z,18.01
2023-03-29T12:56:33.465Z,18.01
2023-03-29T12:57:33.492Z,17.94
2023-03-29T12:58:33.527Z,17.94
2023-03-29T12:59:33.555Z,18.01
2023-03-29T13:00:33.615Z,18.08
2023-03-29T13:01:33.648Z,18.11
2023-03-29T13:02:33.803Z,18.21
2023-03-29T13:03:33.677Z,18.26
2023-03-29T13:04:33.712Z,18.31
2023-03-29T13:05:33.768Z,18.35
2023-03-29T13:06:33.799Z,18.38
2023-03-29T13:07:33.804Z,18.31
2023-03-29T13:08:33.841Z,18.35